sensor_id;sensor_type;location;lat;lon;timestamp;temperature;humidity
3300;DHT22;1662;49.310;8.134;2023-11-18T00:00:37;8.20;99.90
3300;DHT22;1662;49.310;8.134;2023-11-18T00:03:03;7.50;99.90
3300;DHT22;1662;49.310;8.134;2023-11-18T00:05:28;7.50;99.90
3300;DHT22;1662;49.310;8.134;2023-11-18T00:07:54;7.70;99.90
3300;DHT22;1662;49.310;8.134;2023-11-18T00:10:20;7.60;99.90
3300;DHT22;1662;49.310;8.134;2023-11-18T00:12:46;7.60;99.90
3300;DHT22;1662;49.310;8.134;2023-11-18T00:15:12;7.60;99.90
3300;DHT22;1662;49.310;8.134;2023-11-18T00:17:38;7.60;99.90
3300;DHT22;1662;49.310;8.134;2023-11-18T00:20:04;7.80;99.90
3300;DHT22;1662;49.310;8.134;2023-11-18T00:22:35;7.60;99.90
3300;DHT22;1662;49.310;8.134;2023-11-18T00:25:02;7.60;99.90
3300;DHT22;1662;49.310;8.134;2023-11-18T00:27:30;7.60;99.90
3300;DHT22;1662;49.310;8.134;2023-11-18T00:29:56;7.60;99.90
3300;DHT22;1662;49.310;8.134;2023-11-18T00:32:22;7.50;99.90
3300;DHT22;1662;49.310;8.134;2023-11-18T00:34:49;7.60;99.90
3300;DHT22;1662;49.310;8.134;2023-11-18T00:37:15;7.50;99.90
3300;DHT22;1662;49.310;8.134;2023-11-18T00:39:40;7.90;99.90
3300;DHT22;1662;49.310;8.134;2023-11-18T00:42:06;7.50;99.90
3300;DHT22;1662;49.310;8.134;2023-11-18T00:44:32;7.50;99.90
3300;DHT22;1662;49.310;8.134;2023-11-18T00:46:57;7.50;99.90
3300;DHT22;1662;49.310;8.134;2023-11-18T00:49:26;7.60;99.90
3300;DHT22;1662;49.310;8.134;2023-11-18T00:51:51;7.60;99.90
3300;DHT22;1662;49.310;8.134;2023-11-18T00:54:20;7.50;99.90
3300;DHT22;1662;49.310;8.134;2023-11-18T00:56:45;7.60;99.90
3300;DHT22;1662;49.310;8.134;2023-11-18T00:59:11;7.60;99.90
3300;DHT22;1662;49.310;8.134;2023-11-18T01:01:37;7.60;99.90
3300;DHT22;1662;49.310;8.134;2023-11-18T01:04:05;7.70;99.90
3300;DHT22;1662;49.310;8.134;2023-11-18T01:06:31;7.70;99.90
3300;DHT22;1662;49.310;8.134;2023-11-18T01:08:57;7.60;99.90
3300;DHT22;1662;49.310;8.134;2023-11-18T01:11:24;7.60;99.90
3300;DHT22;1662;49.310;8.134;2023-11-18T01:13:49;7.60;99.90
3300;DHT22;1662;49.310;8.134;2023-11-18T01:16:15;7.50;99.90
3300;DHT22;1662;49.310;8.134;2023-11-18T01:18:42;7.60;99.90
3300;DHT22;1662;49.310;8.134;2023-11-18T01:21:08;7.60;99.90
3300;DHT22;1662;49.310;8.134;2023-11-18T01:23:39;7.60;99.90
3300;DHT22;1662;49.310;8.134;2023-11-18T01:26:08;7.60;99.90
3300;DHT22;1662;49.310;8.134;2023-11-18T01:28:36;7.70;99.90
3300;DHT22;1662;49.310;8.134;2023-11-18T01:31:09;7.70;99.90
3300;DHT22;1662;49.310;8.134;2023-11-18T01:33:39;7.60;99.90
3300;DHT22;1662;49.310;8.134;2023-11-18T01:36:09;7.70;99.90
3300;DHT22;1662;49.310;8.134;2023-11-18T01:38:36;7.70;99.90
3300;DHT22;1662;49.310;8.134;2023-11-18T01:41:03;7.70;99.90
3300;DHT22;1662;49.310;8.134;2023-11-18T01:43:30;7.70;99.90
3300;DHT22;1662;49.310;8.134;2023-11-18T01:46:02;7.70;99.90
3300;DHT22;1662;49.310;8.134;2023-11-18T01:48:29;7.70;99.90
3300;DHT22;1662;49.310;8.134;2023-11-18T01:50:57;7.70;99.90
3300;DHT22;1662;49.310;8.134;2023-11-18T01:53:23;7.70;99.90
3300;DHT22;1662;49.310;8.134;2023-11-18T01:55:50;7.70;99.90
3300;DHT22;1662;49.310;8.134;2023-11-18T01:58:16;7.60;99.90
3300;DHT22;1662;49.310;8.134;2023-11-18T02:00:45;7.60;99.90
3300;DHT22;1662;49.310;8.134;2023-11-18T02:03:12;7.60;99.90
3300;DHT22;1662;49.310;8.134;2023-11-18T02:05:40;7.60;99.90
3300;DHT22;1662;49.310;8.134;2023-11-18T02:08:10;7.60;99.90
3300;DHT22;1662;49.310;8.134;2023-11-18T02:13:27;7.60;99.90
3300;DHT22;1662;49.310;8.134;2023-11-18T02:15:56;7.50;99.90
3300;DHT22;1662;49.310;8.134;2023-11-18T02:18:25;7.50;99.90
3300;DHT22;1662;49.310;8.134;2023-11-18T02:20:54;7.50;99.90
3300;DHT22;1662;49.310;8.134;2023-11-18T02:23:20;7.50;99.90
3300;DHT22;1662;49.310;8.134;2023-11-18T02:25:48;7.50;99.90
3300;DHT22;1662;49.310;8.134;2023-11-18T02:28:14;7.50;99.90
3300;DHT22;1662;49.310;8.134;2023-11-18T02:30:43;8.00;99.90
3300;DHT22;1662;49.310;8.134;2023-11-18T02:36:10;7.50;99.90
3300;DHT22;1662;49.310;8.134;2023-11-18T02:38:47;7.50;99.90
3300;DHT22;1662;49.310;8.134;2023-11-18T02:41:15;7.40;99.90
3300;DHT22;1662;49.310;8.134;2023-11-18T02:43:44;7.30;99.90
3300;DHT22;1662;49.310;8.134;2023-11-18T02:46:11;7.30;99.90
3300;DHT22;1662;49.310;8.134;2023-11-18T02:48:38;7.30;99.90
3300;DHT22;1662;49.310;8.134;2023-11-18T02:51:04;7.20;99.90
3300;DHT22;1662;49.310;8.134;2023-11-18T02:53:30;7.20;99.90
3300;DHT22;1662;49.310;8.134;2023-11-18T02:55:56;7.20;99.90
3300;DHT22;1662;49.310;8.134;2023-11-18T02:58:29;7.40;99.90
3300;DHT22;1662;49.310;8.134;2023-11-18T03:00:55;7.20;99.90
3300;DHT22;1662;49.310;8.134;2023-11-18T03:03:20;7.20;99.90
3300;DHT22;1662;49.310;8.134;2023-11-18T03:05:46;7.20;99.90
3300;DHT22;1662;49.310;8.134;2023-11-18T03:08:15;7.20;99.90
3300;DHT22;1662;49.310;8.134;2023-11-18T03:10:41;7.20;99.90
3300;DHT22;1662;49.310;8.134;2023-11-18T03:13:09;7.20;99.90
3300;DHT22;1662;49.310;8.134;2023-11-18T03:15:38;7.20;99.90
3300;DHT22;1662;49.310;8.134;2023-11-18T03:18:04;7.20;99.90
3300;DHT22;1662;49.310;8.134;2023-11-18T03:20:33;7.10;99.90
3300;DHT22;1662;49.310;8.134;2023-11-18T03:22:59;7.00;99.90
3300;DHT22;1662;49.310;8.134;2023-11-18T03:25:26;7.10;99.90
3300;DHT22;1662;49.310;8.134;2023-11-18T03:27:52;7.10;99.90
3300;DHT22;1662;49.310;8.134;2023-11-18T03:30:20;7.10;99.90
3300;DHT22;1662;49.310;8.134;2023-11-18T03:32:45;7.10;99.90
3300;DHT22;1662;49.310;8.134;2023-11-18T03:35:11;7.00;99.90
3300;DHT22;1662;49.310;8.134;2023-11-18T03:37:40;7.00;99.90
3300;DHT22;1662;49.310;8.134;2023-11-18T03:40:13;7.00;99.90
3300;DHT22;1662;49.310;8.134;2023-11-18T03:42:40;7.00;99.90
3300;DHT22;1662;49.310;8.134;2023-11-18T03:45:06;6.90;99.90
3300;DHT22;1662;49.310;8.134;2023-11-18T03:47:32;6.90;99.90
3300;DHT22;1662;49.310;8.134;2023-11-18T03:49:59;6.90;99.90
3300;DHT22;1662;49.310;8.134;2023-11-18T03:52:25;6.90;99.90
3300;DHT22;1662;49.310;8.134;2023-11-18T03:54:51;6.90;99.90
3300;DHT22;1662;49.310;8.134;2023-11-18T03:57:16;6.90;99.90
3300;DHT22;1662;49.310;8.134;2023-11-18T03:59:42;6.90;99.90
3300;DHT22;1662;49.310;8.134;2023-11-18T04:02:10;6.90;99.90
3300;DHT22;1662;49.310;8.134;2023-11-18T04:04:37;6.90;99.90
3300;DHT22;1662;49.310;8.134;2023-11-18T04:07:02;6.90;99.90
3300;DHT22;1662;49.310;8.134;2023-11-18T04:09:28;7.00;99.90
3300;DHT22;1662;49.310;8.134;2023-11-18T04:11:54;7.10;99.90
3300;DHT22;1662;49.310;8.134;2023-11-18T04:14:19;7.00;99.90
3300;DHT22;1662;49.310;8.134;2023-11-18T04:16:46;6.80;99.90
3300;DHT22;1662;49.310;8.134;2023-11-18T04:19:12;6.90;99.90
3300;DHT22;1662;49.310;8.134;2023-11-18T04:21:38;6.90;99.90
3300;DHT22;1662;49.310;8.134;2023-11-18T04:24:05;7.00;99.90
3300;DHT22;1662;49.310;8.134;2023-11-18T04:26:31;6.80;99.90
3300;DHT22;1662;49.310;8.134;2023-11-18T04:28:57;6.80;99.90
3300;DHT22;1662;49.310;8.134;2023-11-18T04:31:24;6.80;99.90
3300;DHT22;1662;49.310;8.134;2023-11-18T04:33:50;7.00;99.90
3300;DHT22;1662;49.310;8.134;2023-11-18T04:36:16;6.70;99.90
3300;DHT22;1662;49.310;8.134;2023-11-18T04:38:42;6.70;99.90
3300;DHT22;1662;49.310;8.134;2023-11-18T04:41:09;6.60;99.90
3300;DHT22;1662;49.310;8.134;2023-11-18T04:43:35;6.80;99.90
3300;DHT22;1662;49.310;8.134;2023-11-18T04:46:00;6.70;99.90
3300;DHT22;1662;49.310;8.134;2023-11-18T04:48:26;6.60;99.90
3300;DHT22;1662;49.310;8.134;2023-11-18T04:50:52;6.60;99.90
3300;DHT22;1662;49.310;8.134;2023-11-18T04:53:17;6.60;99.90
3300;DHT22;1662;49.310;8.134;2023-11-18T04:55:43;6.60;99.90
3300;DHT22;1662;49.310;8.134;2023-11-18T04:58:09;6.60;99.90
3300;DHT22;1662;49.310;8.134;2023-11-18T05:00:38;6.60;99.90
3300;DHT22;1662;49.310;8.134;2023-11-18T05:03:05;6.50;99.90
3300;DHT22;1662;49.310;8.134;2023-11-18T05:05:37;6.70;99.90
3300;DHT22;1662;49.310;8.134;2023-11-18T05:08:04;6.50;99.90
3300;DHT22;1662;49.310;8.134;2023-11-18T05:10:31;6.40;99.90
3300;DHT22;1662;49.310;8.134;2023-11-18T05:13:00;5.60;99.90
3300;DHT22;1662;49.310;8.134;2023-11-18T05:15:30;6.50;99.90
3300;DHT22;1662;49.310;8.134;2023-11-18T05:17:56;6.60;99.90
3300;DHT22;1662;49.310;8.134;2023-11-18T05:20:22;6.70;99.90
3300;DHT22;1662;49.310;8.134;2023-11-18T05:22:48;7.10;99.90
3300;DHT22;1662;49.310;8.134;2023-11-18T05:25:14;7.50;99.90
3300;DHT22;1662;49.310;8.134;2023-11-18T05:27:40;6.80;99.90
3300;DHT22;1662;49.310;8.134;2023-11-18T05:30:07;7.00;99.90
3300;DHT22;1662;49.310;8.134;2023-11-18T05:32:33;6.70;99.90
3300;DHT22;1662;49.310;8.134;2023-11-18T05:34:59;7.70;99.90
3300;DHT22;1662;49.310;8.134;2023-11-18T05:37:25;6.80;99.90
3300;DHT22;1662;49.310;8.134;2023-11-18T05:39:51;6.60;99.90
3300;DHT22;1662;49.310;8.134;2023-11-18T05:42:26;6.70;99.90
3300;DHT22;1662;49.310;8.134;2023-11-18T05:44:51;6.60;99.90
3300;DHT22;1662;49.310;8.134;2023-11-18T05:47:27;6.60;99.90
3300;DHT22;1662;49.310;8.134;2023-11-18T05:49:55;6.50;99.90
3300;DHT22;1662;49.310;8.134;2023-11-18T05:52:22;6.50;99.90
3300;DHT22;1662;49.310;8.134;2023-11-18T05:54:50;6.40;99.90
3300;DHT22;1662;49.310;8.134;2023-11-18T05:57:16;6.40;99.90
3300;DHT22;1662;49.310;8.134;2023-11-18T05:59:42;6.30;99.90
3300;DHT22;1662;49.310;8.134;2023-11-18T06:02:08;6.20;99.90
3300;DHT22;1662;49.310;8.134;2023-11-18T06:04:34;6.30;99.90
3300;DHT22;1662;49.310;8.134;2023-11-18T06:07:00;6.20;99.90
3300;DHT22;1662;49.310;8.134;2023-11-18T06:09:28;6.20;99.90
3300;DHT22;1662;49.310;8.134;2023-11-18T06:11:53;6.10;99.90
3300;DHT22;1662;49.310;8.134;2023-11-18T06:14:22;6.10;99.90
3300;DHT22;1662;49.310;8.134;2023-11-18T06:16:48;6.20;99.90
3300;DHT22;1662;49.310;8.134;2023-11-18T06:19:16;6.20;99.90
3300;DHT22;1662;49.310;8.134;2023-11-18T06:21:41;6.20;99.90
3300;DHT22;1662;49.310;8.134;2023-11-18T06:24:07;6.10;99.90
3300;DHT22;1662;49.310;8.134;2023-11-18T06:26:34;6.20;99.90
3300;DHT22;1662;49.310;8.134;2023-11-18T06:29:03;6.10;99.90
3300;DHT22;1662;49.310;8.134;2023-11-18T06:31:29;6.10;99.90
3300;DHT22;1662;49.310;8.134;2023-11-18T06:33:55;6.10;99.90
3300;DHT22;1662;49.310;8.134;2023-11-18T06:36:21;6.10;99.90
3300;DHT22;1662;49.310;8.134;2023-11-18T06:38:51;6.00;99.90
3300;DHT22;1662;49.310;8.134;2023-11-18T06:41:22;6.10;99.90
3300;DHT22;1662;49.310;8.134;2023-11-18T06:44:14;6.10;99.90
3300;DHT22;1662;49.310;8.134;2023-11-18T06:46:43;6.10;99.90
3300;DHT22;1662;49.310;8.134;2023-11-18T06:49:12;6.10;99.90
3300;DHT22;1662;49.310;8.134;2023-11-18T06:51:41;6.20;99.90
3300;DHT22;1662;49.310;8.134;2023-11-18T06:54:07;6.30;99.90
3300;DHT22;1662;49.310;8.134;2023-11-18T06:56:37;6.30;99.90
3300;DHT22;1662;49.310;8.134;2023-11-18T06:59:07;6.30;99.90
3300;DHT22;1662;49.310;8.134;2023-11-18T07:01:33;6.30;99.90
3300;DHT22;1662;49.310;8.134;2023-11-18T07:03:59;6.30;99.90
3300;DHT22;1662;49.310;8.134;2023-11-18T07:06:27;6.20;99.90
3300;DHT22;1662;49.310;8.134;2023-11-18T07:08:54;6.30;99.90
3300;DHT22;1662;49.310;8.134;2023-11-18T07:11:25;6.40;99.90
3300;DHT22;1662;49.310;8.134;2023-11-18T07:13:51;6.20;99.90
3300;DHT22;1662;49.310;8.134;2023-11-18T07:16:25;6.30;99.90
3300;DHT22;1662;49.310;8.134;2023-11-18T07:18:51;6.30;99.90
3300;DHT22;1662;49.310;8.134;2023-11-18T07:21:17;6.20;99.90
3300;DHT22;1662;49.310;8.134;2023-11-18T07:23:42;6.10;99.90
3300;DHT22;1662;49.310;8.134;2023-11-18T07:26:08;6.00;99.90
3300;DHT22;1662;49.310;8.134;2023-11-18T07:28:35;6.10;99.90
3300;DHT22;1662;49.310;8.134;2023-11-18T07:31:07;6.10;99.90
3300;DHT22;1662;49.310;8.134;2023-11-18T07:33:33;6.00;99.90
3300;DHT22;1662;49.310;8.134;2023-11-18T07:35:59;6.00;99.90
3300;DHT22;1662;49.310;8.134;2023-11-18T07:38:24;6.00;99.90
3300;DHT22;1662;49.310;8.134;2023-11-18T07:40:51;6.10;99.90
3300;DHT22;1662;49.310;8.134;2023-11-18T07:43:22;6.10;99.90
3300;DHT22;1662;49.310;8.134;2023-11-18T07:45:48;6.10;99.90
3300;DHT22;1662;49.310;8.134;2023-11-18T07:48:18;6.10;99.90
3300;DHT22;1662;49.310;8.134;2023-11-18T07:50:46;6.10;99.90
3300;DHT22;1662;49.310;8.134;2023-11-18T07:53:17;6.20;99.90
3300;DHT22;1662;49.310;8.134;2023-11-18T07:55:43;6.10;99.90
3300;DHT22;1662;49.310;8.134;2023-11-18T07:58:10;6.10;99.90
3300;DHT22;1662;49.310;8.134;2023-11-18T08:00:43;6.20;99.90
3300;DHT22;1662;49.310;8.134;2023-11-18T08:03:11;6.30;99.90
3300;DHT22;1662;49.310;8.134;2023-11-18T08:05:41;6.30;99.90
3300;DHT22;1662;49.310;8.134;2023-11-18T08:08:10;6.30;99.90
3300;DHT22;1662;49.310;8.134;2023-11-18T08:10:37;6.20;99.90
3300;DHT22;1662;49.310;8.134;2023-11-18T08:13:06;8.00;99.90
3300;DHT22;1662;49.310;8.134;2023-11-18T08:15:34;6.80;99.90
3300;DHT22;1662;49.310;8.134;2023-11-18T08:18:02;6.40;99.90
3300;DHT22;1662;49.310;8.134;2023-11-18T08:20:29;6.60;99.90
3300;DHT22;1662;49.310;8.134;2023-11-18T08:22:54;6.40;99.90
3300;DHT22;1662;49.310;8.134;2023-11-18T08:25:21;6.40;99.90
3300;DHT22;1662;49.310;8.134;2023-11-18T08:27:47;6.90;99.90
3300;DHT22;1662;49.310;8.134;2023-11-18T08:30:13;6.30;99.90
3300;DHT22;1662;49.310;8.134;2023-11-18T08:32:41;6.40;99.90
3300;DHT22;1662;49.310;8.134;2023-11-18T08:35:11;6.50;99.90
3300;DHT22;1662;49.310;8.134;2023-11-18T08:37:42;6.80;99.90
3300;DHT22;1662;49.310;8.134;2023-11-18T08:40:08;6.40;99.90
3300;DHT22;1662;49.310;8.134;2023-11-18T08:42:50;6.50;99.90
3300;DHT22;1662;49.310;8.134;2023-11-18T08:45:17;6.50;99.90
3300;DHT22;1662;49.310;8.134;2023-11-18T08:47:44;6.50;99.90
3300;DHT22;1662;49.310;8.134;2023-11-18T08:50:15;6.50;99.90
3300;DHT22;1662;49.310;8.134;2023-11-18T08:52:45;6.50;99.90
3300;DHT22;1662;49.310;8.134;2023-11-18T08:55:19;6.50;99.90
3300;DHT22;1662;49.310;8.134;2023-11-18T08:58:08;6.50;99.90
3300;DHT22;1662;49.310;8.134;2023-11-18T09:00:54;6.50;99.90
3300;DHT22;1662;49.310;8.134;2023-11-18T09:03:22;6.60;99.90
3300;DHT22;1662;49.310;8.134;2023-11-18T09:06:03;6.60;99.90
3300;DHT22;1662;49.310;8.134;2023-11-18T09:08:30;6.70;99.90
3300;DHT22;1662;49.310;8.134;2023-11-18T09:11:03;6.70;99.90
3300;DHT22;1662;49.310;8.134;2023-11-18T09:13:34;6.70;99.90
3300;DHT22;1662;49.310;8.134;2023-11-18T09:16:04;7.00;99.90
3300;DHT22;1662;49.310;8.134;2023-11-18T09:18:34;6.70;99.90
3300;DHT22;1662;49.310;8.134;2023-11-18T09:21:01;7.10;99.90
3300;DHT22;1662;49.310;8.134;2023-11-18T09:23:29;6.70;99.90
3300;DHT22;1662;49.310;8.134;2023-11-18T09:25:55;6.80;99.90
3300;DHT22;1662;49.310;8.134;2023-11-18T09:28:21;6.80;99.90
3300;DHT22;1662;49.310;8.134;2023-11-18T09:30:49;7.10;99.90
3300;DHT22;1662;49.310;8.134;2023-11-18T09:33:23;7.10;99.90
3300;DHT22;1662;49.310;8.134;2023-11-18T09:35:57;7.00;99.90
3300;DHT22;1662;49.310;8.134;2023-11-18T09:38:35;7.00;99.90
3300;DHT22;1662;49.310;8.134;2023-11-18T09:41:06;7.00;99.90
3300;DHT22;1662;49.310;8.134;2023-11-18T09:43:39;7.10;99.90
3300;DHT22;1662;49.310;8.134;2023-11-18T09:46:13;7.10;99.90
3300;DHT22;1662;49.310;8.134;2023-11-18T09:48:50;7.10;99.90
3300;DHT22;1662;49.310;8.134;2023-11-18T09:51:21;7.20;99.90
3300;DHT22;1662;49.310;8.134;2023-11-18T09:53:50;7.40;99.90
3300;DHT22;1662;49.310;8.134;2023-11-18T09:56:31;7.20;99.90
3300;DHT22;1662;49.310;8.134;2023-11-18T09:59:18;7.30;99.90
3300;DHT22;1662;49.310;8.134;2023-11-18T10:01:52;7.40;99.90
3300;DHT22;1662;49.310;8.134;2023-11-18T10:04:24;7.40;99.90
3300;DHT22;1662;49.310;8.134;2023-11-18T10:06:53;7.40;99.90
3300;DHT22;1662;49.310;8.134;2023-11-18T10:09:20;7.40;99.90
3300;DHT22;1662;49.310;8.134;2023-11-18T10:11:54;7.40;99.90
3300;DHT22;1662;49.310;8.134;2023-11-18T10:14:34;7.50;99.90
3300;DHT22;1662;49.310;8.134;2023-11-18T10:17:06;7.50;99.90
3300;DHT22;1662;49.310;8.134;2023-11-18T10:22:27;7.60;99.90
3300;DHT22;1662;49.310;8.134;2023-11-18T10:24:58;7.60;99.90
3300;DHT22;1662;49.310;8.134;2023-11-18T10:27:27;7.60;99.90
3300;DHT22;1662;49.310;8.134;2023-11-18T10:30:11;7.70;99.90
3300;DHT22;1662;49.310;8.134;2023-11-18T10:32:57;7.70;99.90
3300;DHT22;1662;49.310;8.134;2023-11-18T10:35:34;7.70;99.90
3300;DHT22;1662;49.310;8.134;2023-11-18T10:38:03;7.70;99.90
3300;DHT22;1662;49.310;8.134;2023-11-18T10:40:32;7.70;99.90
3300;DHT22;1662;49.310;8.134;2023-11-18T10:43:05;7.80;99.90
3300;DHT22;1662;49.310;8.134;2023-11-18T10:45:35;7.80;99.90
3300;DHT22;1662;49.310;8.134;2023-11-18T10:48:07;7.70;99.90
3300;DHT22;1662;49.310;8.134;2023-11-18T10:50:37;7.80;99.90
3300;DHT22;1662;49.310;8.134;2023-11-18T10:53:05;7.70;99.90
3300;DHT22;1662;49.310;8.134;2023-11-18T10:55:43;7.70;99.90
3300;DHT22;1662;49.310;8.134;2023-11-18T10:58:23;7.80;99.90
3300;DHT22;1662;49.310;8.134;2023-11-18T11:00:53;7.70;99.90
3300;DHT22;1662;49.310;8.134;2023-11-18T11:03:25;7.70;99.90
3300;DHT22;1662;49.310;8.134;2023-11-18T11:05:52;7.70;99.90
3300;DHT22;1662;49.310;8.134;2023-11-18T11:08:19;7.70;99.90
3300;DHT22;1662;49.310;8.134;2023-11-18T11:10:46;7.70;99.90
3300;DHT22;1662;49.310;8.134;2023-11-18T11:13:16;7.70;99.90
3300;DHT22;1662;49.310;8.134;2023-11-18T11:15:44;7.70;99.90
3300;DHT22;1662;49.310;8.134;2023-11-18T11:18:12;7.70;99.90
3300;DHT22;1662;49.310;8.134;2023-11-18T11:31:43;7.70;99.90
3300;DHT22;1662;49.310;8.134;2023-11-18T11:34:18;7.70;99.90
3300;DHT22;1662;49.310;8.134;2023-11-18T11:36:51;7.70;99.90
3300;DHT22;1662;49.310;8.134;2023-11-18T11:39:19;7.70;99.90
3300;DHT22;1662;49.310;8.134;2023-11-18T11:41:52;7.70;99.90
3300;DHT22;1662;49.310;8.134;2023-11-18T11:44:23;7.70;99.90
3300;DHT22;1662;49.310;8.134;2023-11-18T11:46:55;7.70;99.90
3300;DHT22;1662;49.310;8.134;2023-11-18T11:49:23;7.70;99.90
3300;DHT22;1662;49.310;8.134;2023-11-18T11:52:15;7.70;99.90
3300;DHT22;1662;49.310;8.134;2023-11-18T11:54:55;7.70;99.90
3300;DHT22;1662;49.310;8.134;2023-11-18T11:57:24;7.70;99.90
3300;DHT22;1662;49.310;8.134;2023-11-18T12:02:22;7.70;99.90
3300;DHT22;1662;49.310;8.134;2023-11-18T12:04:53;7.70;99.90
3300;DHT22;1662;49.310;8.134;2023-11-18T12:07:20;7.80;99.90
3300;DHT22;1662;49.310;8.134;2023-11-18T12:09:49;7.70;99.90
3300;DHT22;1662;49.310;8.134;2023-11-18T12:12:22;7.80;99.90
3300;DHT22;1662;49.310;8.134;2023-11-18T12:14:53;7.70;99.90
3300;DHT22;1662;49.310;8.134;2023-11-18T12:17:22;7.80;99.90
3300;DHT22;1662;49.310;8.134;2023-11-18T12:19:48;7.80;99.90
3300;DHT22;1662;49.310;8.134;2023-11-18T12:22:21;8.00;99.90
3300;DHT22;1662;49.310;8.134;2023-11-18T12:27:45;8.00;99.90
3300;DHT22;1662;49.310;8.134;2023-11-18T12:41:01;7.90;99.90
3300;DHT22;1662;49.310;8.134;2023-11-18T12:46:41;7.90;99.90
3300;DHT22;1662;49.310;8.134;2023-11-18T12:49:15;7.80;99.90
3300;DHT22;1662;49.310;8.134;2023-11-18T12:51:43;7.80;99.90
3300;DHT22;1662;49.310;8.134;2023-11-18T12:54:11;7.80;99.90
3300;DHT22;1662;49.310;8.134;2023-11-18T12:56:41;7.80;99.90
3300;DHT22;1662;49.310;8.134;2023-11-18T12:59:14;7.80;99.90
3300;DHT22;1662;49.310;8.134;2023-11-18T13:01:43;7.80;99.90
3300;DHT22;1662;49.310;8.134;2023-11-18T13:04:18;7.80;99.90
3300;DHT22;1662;49.310;8.134;2023-11-18T13:06:46;7.80;99.90
3300;DHT22;1662;49.310;8.134;2023-11-18T13:09:11;7.80;99.90
3300;DHT22;1662;49.310;8.134;2023-11-18T13:11:52;7.70;99.90
3300;DHT22;1662;49.310;8.134;2023-11-18T13:14:18;7.80;99.90
3300;DHT22;1662;49.310;8.134;2023-11-18T13:16:44;7.80;99.90
3300;DHT22;1662;49.310;8.134;2023-11-18T13:19:11;7.80;99.90
3300;DHT22;1662;49.310;8.134;2023-11-18T13:21:48;7.80;99.90
3300;DHT22;1662;49.310;8.134;2023-11-18T13:24:13;7.80;99.90
3300;DHT22;1662;49.310;8.134;2023-11-18T13:26:39;7.80;99.90
3300;DHT22;1662;49.310;8.134;2023-11-18T13:29:05;7.80;99.90
3300;DHT22;1662;49.310;8.134;2023-11-18T13:31:32;7.80;99.90
3300;DHT22;1662;49.310;8.134;2023-11-18T13:33:58;7.80;99.90
3300;DHT22;1662;49.310;8.134;2023-11-18T13:36:25;7.80;99.90
3300;DHT22;1662;49.310;8.134;2023-11-18T13:38:51;7.70;99.90
3300;DHT22;1662;49.310;8.134;2023-11-18T13:41:32;7.70;99.90
3300;DHT22;1662;49.310;8.134;2023-11-18T13:43:58;7.80;99.90
3300;DHT22;1662;49.310;8.134;2023-11-18T13:46:24;7.80;99.90
3300;DHT22;1662;49.310;8.134;2023-11-18T13:48:51;7.90;99.90
3300;DHT22;1662;49.310;8.134;2023-11-18T13:51:21;7.90;99.90
3300;DHT22;1662;49.310;8.134;2023-11-18T13:53:47;7.90;99.90
3300;DHT22;1662;49.310;8.134;2023-11-18T13:56:13;7.90;99.90
3300;DHT22;1662;49.310;8.134;2023-11-18T13:58:44;8.00;99.90
3300;DHT22;1662;49.310;8.134;2023-11-18T14:01:11;7.90;99.90
3300;DHT22;1662;49.310;8.134;2023-11-18T14:03:40;7.80;99.90
3300;DHT22;1662;49.310;8.134;2023-11-18T14:06:08;7.80;99.90
3300;DHT22;1662;49.310;8.134;2023-11-18T14:08:38;7.90;99.90
3300;DHT22;1662;49.310;8.134;2023-11-18T14:11:05;7.80;99.90
3300;DHT22;1662;49.310;8.134;2023-11-18T14:13:32;7.80;99.90
3300;DHT22;1662;49.310;8.134;2023-11-18T14:16:00;7.80;99.90
3300;DHT22;1662;49.310;8.134;2023-11-18T14:18:26;7.80;99.90
3300;DHT22;1662;49.310;8.134;2023-11-18T14:20:53;7.90;99.90
3300;DHT22;1662;49.310;8.134;2023-11-18T14:23:18;7.80;99.90
3300;DHT22;1662;49.310;8.134;2023-11-18T14:25:44;7.90;99.90
3300;DHT22;1662;49.310;8.134;2023-11-18T14:28:11;7.80;99.90
3300;DHT22;1662;49.310;8.134;2023-11-18T14:30:38;7.80;99.90
3300;DHT22;1662;49.310;8.134;2023-11-18T14:33:03;7.70;99.90
3300;DHT22;1662;49.310;8.134;2023-11-18T14:35:29;7.80;99.90
3300;DHT22;1662;49.310;8.134;2023-11-18T14:37:55;7.80;99.90
3300;DHT22;1662;49.310;8.134;2023-11-18T14:40:21;7.80;99.90
3300;DHT22;1662;49.310;8.134;2023-11-18T14:42:49;7.90;99.90
3300;DHT22;1662;49.310;8.134;2023-11-18T14:45:16;7.90;99.90
3300;DHT22;1662;49.310;8.134;2023-11-18T14:47:43;7.90;99.90
3300;DHT22;1662;49.310;8.134;2023-11-18T14:50:24;7.90;99.90
3300;DHT22;1662;49.310;8.134;2023-11-18T14:52:52;7.90;99.90
3300;DHT22;1662;49.310;8.134;2023-11-18T14:55:27;7.90;99.90
3300;DHT22;1662;49.310;8.134;2023-11-18T14:57:53;7.90;99.90
3300;DHT22;1662;49.310;8.134;2023-11-18T15:00:19;7.90;99.90
3300;DHT22;1662;49.310;8.134;2023-11-18T15:02:48;7.90;99.90
3300;DHT22;1662;49.310;8.134;2023-11-18T15:05:16;7.90;99.90
3300;DHT22;1662;49.310;8.134;2023-11-18T15:07:45;7.90;99.90
3300;DHT22;1662;49.310;8.134;2023-11-18T15:10:16;7.90;99.90
3300;DHT22;1662;49.310;8.134;2023-11-18T15:12:58;8.00;99.90
3300;DHT22;1662;49.310;8.134;2023-11-18T15:15:25;7.90;99.90
3300;DHT22;1662;49.310;8.134;2023-11-18T15:18:02;7.90;99.90
3300;DHT22;1662;49.310;8.134;2023-11-18T15:20:29;7.90;99.90
3300;DHT22;1662;49.310;8.134;2023-11-18T15:22:55;7.90;99.90
3300;DHT22;1662;49.310;8.134;2023-11-18T15:25:22;8.00;99.90
3300;DHT22;1662;49.310;8.134;2023-11-18T15:27:48;7.90;99.90
3300;DHT22;1662;49.310;8.134;2023-11-18T15:30:15;7.90;99.90
3300;DHT22;1662;49.310;8.134;2023-11-18T15:32:45;8.00;99.90
3300;DHT22;1662;49.310;8.134;2023-11-18T15:35:12;8.00;99.90
3300;DHT22;1662;49.310;8.134;2023-11-18T15:37:42;8.00;99.90
3300;DHT22;1662;49.310;8.134;2023-11-18T15:40:09;7.90;99.90
3300;DHT22;1662;49.310;8.134;2023-11-18T15:42:45;7.90;99.90
3300;DHT22;1662;49.310;8.134;2023-11-18T15:45:16;7.90;99.90
3300;DHT22;1662;49.310;8.134;2023-11-18T15:47:42;7.80;99.90
3300;DHT22;1662;49.310;8.134;2023-11-18T15:50:10;7.70;99.90
3300;DHT22;1662;49.310;8.134;2023-11-18T15:52:43;7.80;99.90
3300;DHT22;1662;49.310;8.134;2023-11-18T15:55:12;7.70;99.90
3300;DHT22;1662;49.310;8.134;2023-11-18T15:57:41;7.70;99.90
3300;DHT22;1662;49.310;8.134;2023-11-18T16:00:09;7.70;99.90
3300;DHT22;1662;49.310;8.134;2023-11-18T16:02:45;7.70;99.90
3300;DHT22;1662;49.310;8.134;2023-11-18T16:05:18;7.70;99.90
3300;DHT22;1662;49.310;8.134;2023-11-18T16:07:49;7.70;99.90
3300;DHT22;1662;49.310;8.134;2023-11-18T16:10:20;7.70;99.90
3300;DHT22;1662;49.310;8.134;2023-11-18T16:12:57;7.70;99.90
3300;DHT22;1662;49.310;8.134;2023-11-18T16:15:24;7.70;99.90
3300;DHT22;1662;49.310;8.134;2023-11-18T16:17:51;7.70;99.90
3300;DHT22;1662;49.310;8.134;2023-11-18T16:20:22;7.70;99.90
3300;DHT22;1662;49.310;8.134;2023-11-18T16:22:52;7.70;99.90
3300;DHT22;1662;49.310;8.134;2023-11-18T16:25:20;7.70;99.90
3300;DHT22;1662;49.310;8.134;2023-11-18T16:27:47;7.70;99.90
3300;DHT22;1662;49.310;8.134;2023-11-18T16:30:13;7.70;99.90
3300;DHT22;1662;49.310;8.134;2023-11-18T16:32:40;7.80;99.90
3300;DHT22;1662;49.310;8.134;2023-11-18T16:35:06;7.70;99.90
3300;DHT22;1662;49.310;8.134;2023-11-18T16:37:37;7.70;99.90
3300;DHT22;1662;49.310;8.134;2023-11-18T16:40:03;7.70;99.90
3300;DHT22;1662;49.310;8.134;2023-11-18T16:42:30;7.70;99.90
3300;DHT22;1662;49.310;8.134;2023-11-18T16:44:55;7.60;99.90
3300;DHT22;1662;49.310;8.134;2023-11-18T16:47:25;7.70;99.90
3300;DHT22;1662;49.310;8.134;2023-11-18T16:49:50;7.60;99.90
3300;DHT22;1662;49.310;8.134;2023-11-18T16:52:16;7.60;99.90
3300;DHT22;1662;49.310;8.134;2023-11-18T16:54:43;7.60;99.90
3300;DHT22;1662;49.310;8.134;2023-11-18T16:57:09;7.60;99.90
3300;DHT22;1662;49.310;8.134;2023-11-18T16:59:35;7.70;99.90
3300;DHT22;1662;49.310;8.134;2023-11-18T17:02:01;7.60;99.90
3300;DHT22;1662;49.310;8.134;2023-11-18T17:04:27;7.70;99.90